Kezdőlap
METAR-TAF:

METAR-TAF

Repülőterek :

Xi'an, Kína

földrajzi szélesség: 34-26N, földrajzi hosszúság: 108-45E, magasság: 479 m

Jelenlegi meteorológiai megfigyelések

A jelentés 1 órával és 12 perccel ezelõtt készült, 12:00 UTC
Nyugati szél 4 kt
Hőmérséklet 19°C
Páratartalom 94%
Légköri nyomás 1015 hPa
Látótávolság: 4000 m
Párásság

METAR: ZLXY 251200Z 28002MPS 4000 BR NSC 19/18 Q1015 NOSIG

Idő: 21:12 (13:12 UTC)

Előrejelzés

A jelentés 4 órával és 7 perccel ezelõtt készült, 09:05 UTC
Az előrejelzés 25-én 12 óra UTC és 26-én 12 óra UTC között érvényes
Kelet-északkeleti szél 8 kt
Látótávolság: 3000 m
Szórványos felhőzet 7000 lábon
Párásság

TAF: ZLXY 250905Z 2512/2612 06004MPS 3000 BR SCT070 TX24/2607Z TN15/2522Z

Meteorológiai megfigyelések és előrejelzések több, mint 4000 repülőtéren (METAR és TAF jelentéseket).

A térképen piros és sárga pontok jelzik az elérhető meteorológiai állomásokat.

Mozgassa az egeret a pont fölött, hogy megjelenjen az állomás neve.

Azután kattintson az időjárási megfigyelések és előrejelzések megtekintéséhez.

A térkép megváltoztatása: kattintson a fekete keresztel jelölt zöld gombra ráközelítéshez, a vonallal jelölt zöld gombra távolításhoz, vagy a zöld nyilakra a szomszédos térképek eléréséhez.


METAR-TAF: